Canton, SD

7:56 PM CDT on May 05, 2015 (GMT -0500)
NonFedAWOS | | Change Station
CLOSE
Current Station
Personal Weather Station
Location: Canton, SD
Elevation: 1290 ft
Nearby Weather Stations

Elev 1290 ft 43.31 °N, 96.57 °W | Updated 41 minutes ago

Mostly Cloudy
Mostly Cloudy
70 °F
Feels Like 70 °F
N
17
Wind Variable Wind from East
Gusts 22.0 mph

Today
High -- | Low -- °F
--% Chance of Precip.
Yesterday
High -- | Low -- °F
Precip. -- in
6:14 AM 8:32 PM
Waning Gibbous, 96% visible
Pressure 30.00 in
Visibility 8.0 miles
Clouds Mostly Cloudy 6000 ft
Mostly Cloudy 9000 ft
Overcast 15000 ft
Dew Point 61 °F
Humidity 73%
Rainfall in
Snow Depth Not available.
UV 1 out of 12
Pollen 8.30 out of 12
Air Quality Not available.
Flu Activity Sporadic
METAR KFSD 052256Z 13009KT 8SM BKN060 BKN090 OVC150 20/14 A2999 RMK AO2 SLP157 T02000139

More Conditions Fewer Conditions

Pressure 30.00 in
Visibility 8.0 miles
Clouds Mostly Cloudy 6000 ft
Mostly Cloudy 9000 ft
Overcast 15000 ft
Dew Point 61 °F
Humidity 73%
Rainfall in
Snow Depth Not available.
UV 1 out of 12
Pollen 8.30 out of 12
Air Quality Not available.
Flu Activity Sporadic
METAR KFSD 052256Z 13009KT 8SM BKN060 BKN090 OVC150 20/14 A2999 RMK AO2 SLP157 T02000139

More Conditions Fewer Conditions

10-Day Weather Forecast

Almanac

Astronomy

May. 05, 2015 Rise Set
Actual Time
Civil Twilight
Nautical Twilight
Astronomical Twilight
Moon
Length of Visible Light
Length of Day
Tomorrow will be .
, % of the Moon is Illuminated

Today's Extremes

State Highs State Lows

Community

WunderPhotos

Upload Photos

1,819,025 photos uploaded!

WunderBlogs® & News

Nearby

Air Quality

  Air Quality AQ Index Pollutant
Not available.

Snow Depth

Station Depth Elevation

Earthquake Activity

City Distance Mag. Time & Date
Minimum magnitude displayed is 2.5.

Coastal Water Temperatures

Place Temperature

Stations

Nearby Weather Stations

Station Location Temp. Windchill Dew Point Humidity Wind Precip. Elev Updated Type